Latest Weather Observations for Mount Boyce

IDN60901

Issued at 3:25 pm EST Wednesday 3 September 2014 (issued every 10 minutes, with the page automatically refreshed every 10 minutes)

About weather observations | Map of Sydney area stations | Latest observations for Sydney area | Other Formats
Station Details ID: 063292 Name: MOUNT BOYCE AWS Lat: -33.62 Lon: 150.27 Height: 1080.0 m
Data from the previous 72 hours. | See also: Recent months at Mount Boyce
Date/Time
EST
Tmp

°C
App
Tmp
°C
Dew
Point
°C
Rel
Hum
%
Delta-T

°C
Wind Press
QNH
hPa
Press
MSL
hPa
Rain
since
9 am
mm
Dir
 
Spd
km/h
Gust
km/h
Spd
kts
Gust
kts
03/03:00pm 7.5 1.4 -2.0 51 3.8 SW 20 32 11 17 - - 0.0
03/02:30pm 7.7 1.9 -1.8 51 3.8 S 19 26 10 14 - - 0.0
03/02:00pm 7.2 0.7 -2.8 49 3.9 SW 22 35 12 19 - - 0.0
03/01:30pm 7.7 1.3 -2.0 50 3.9 SW 22 32 12 17 - - 0.0
03/01:00pm 7.5 2.9 -0.7 56 3.4 S 13 22 7 12 - - 0.0
03/12:30pm 7.5 1.5 -1.2 54 3.5 SSW 20 33 11 18 - - 0.0
03/12:00pm 7.8 1.9 -0.9 54 3.6 SSW 20 35 11 19 - - 0.0
03/11:30am 6.8 0.8 -1.6 55 3.4 SSW 20 37 11 20 - - 0.0
03/11:00am 6.1 -1.0 -1.5 58 3.0 SSW 26 39 14 21 - - 0.0
03/10:54am 6.1 -1.4 -1.5 58 3.0 SW 28 46 15 25 - - 0.0
03/10:30am 5.6 -1.5 -1.5 60 2.8 SSW 26 43 14 23 - - 0.0
03/10:00am 4.9 -3.3 -1.3 64 2.5 SW 32 54 17 29 - - 0.0
03/09:38am 4.3 -3.3 -1.9 64 2.4 SW 28 48 15 26 - - 0.0
03/09:30am 4.5 -2.6 -1.5 65 2.4 SW 26 37 14 20 - - 0.0
03/09:00am 3.9 -3.2 -1.5 68 2.1 SW 26 44 14 24 - - 4.4
03/08:44am 3.5 -4.1 -1.8 68 2.0 SW 28 46 15 25 - - 4.4
03/08:30am 3.2 -3.6 -2.1 68 2.0 SW 24 43 13 23 - - 4.4
03/08:00am 2.5 -5.5 -2.2 71 1.8 SW 30 50 16 27 - - 4.4
03/07:56am 2.4 -5.2 -2.3 71 1.8 SW 28 50 15 27 - - 4.4
03/07:30am 1.5 -4.6 -2.1 77 1.3 WSW 20 37 11 20 - - 4.2
03/07:00am 0.8 -6.0 -2.1 81 1.1 WSW 24 39 13 21 - - 4.2
03/06:30am 0.8 -6.4 -2.4 79 1.2 WSW 26 39 14 21 - - 4.2
03/06:00am 1.1 -6.2 -2.6 76 1.4 WSW 26 35 14 19 - - 4.2
03/05:30am 1.1 -7.4 -3.0 74 1.6 WSW 32 46 17 25 - - 4.2
03/05:17am 0.8 -6.9 -3.1 75 1.5 WSW 28 46 15 25 - - 4.2
03/05:00am 1.1 -6.6 -3.0 74 1.6 WSW 28 43 15 23 - - 4.2
03/04:43am 1.0 -7.0 -2.4 78 1.3 WSW 30 48 16 26 - - 4.2
03/04:30am 1.0 -7.0 -2.2 79 1.2 WSW 30 46 16 25 - - 4.2
03/04:00am 1.2 -6.8 -2.0 79 1.2 WSW 30 41 16 22 - - 4.2
03/03:44am 1.4 -6.1 -1.7 80 1.2 WSW 28 52 15 28 - - 4.2
03/03:30am 1.5 -6.4 -1.9 78 1.3 WSW 30 43 16 23 - - 4.2
03/03:07am 1.8 -6.2 -2.0 76 1.4 WSW 30 48 16 26 - - 4.2
03/03:00am 1.8 -5.4 -2.0 76 1.4 WSW 26 41 14 22 - - 4.2
03/02:57am 1.7 -5.9 -2.1 76 1.4 WSW 28 46 15 25 - - 4.2
03/02:30am 1.6 -6.0 -2.0 77 1.3 WSW 28 43 15 23 - - 4.2
03/02:00am 1.8 -6.5 -1.4 79 1.2 WSW 32 50 17 27 - - 4.2
03/01:30am 2.0 -6.8 -1.2 79 1.2 WSW 35 54 19 29 - - 4.2
03/01:27am 2.1 -6.7 -1.3 78 1.3 WSW 35 54 19 29 - - 4.2
03/01:00am 2.0 -5.8 -1.1 80 1.2 WSW 30 46 16 25 - - 4.2
03/12:34am 2.0 -5.8 -0.7 82 1.1 WSW 30 48 16 26 - - 4.2
03/12:30am 1.9 -6.3 -0.8 82 1.0 WSW 32 43 17 23 - - 4.2
03/12:00am 1.7 -6.0 -0.2 87 0.7 WSW 30 43 16 23 - - 4.2
 
Date/Time
EST
Tmp

°C
App
Tmp
°C
Dew
Point
°C
Rel
Hum
%
Delta-T

°C
Wind Press
QNH
hPa
Press
MSL
hPa
Rain
since
9 am
mm
Dir
 
Spd
km/h
Gust
km/h
Spd
kts
Gust
kts
02/11:30pm 1.4 -7.2 0.2 92 0.5 WSW 35 54 19 29 - - 4.2
02/11:22pm 1.5 -6.6 0.8 95 0.3 WSW 33 54 18 29 - - 4.2
02/11:11pm 1.2 -6.9 0.8 97 0.2 WSW 33 48 18 26 - - 4.2
02/11:02pm 1.0 -7.0 0.6 97 0.2 WSW 32 41 17 22 - - 4.0
02/11:00pm 1.1 -6.9 0.7 97 0.2 WSW 32 41 17 22 - - 4.0
02/10:39pm 0.7 -6.9 0.3 97 0.2 WSW 30 52 16 28 - - 3.8
02/10:30pm 0.8 -6.8 0.4 97 0.2 WSW 30 44 16 24 - - 3.6
02/10:00pm 0.8 -6.8 0.4 97 0.2 WSW 30 44 16 24 - - 2.8
02/09:47pm 0.6 -7.7 0.0 96 0.2 SW 33 56 18 30 - - 2.4
02/09:30pm 1.3 -6.8 0.7 96 0.2 SW 33 61 18 33 - - 1.6
02/09:21pm 1.5 -6.4 0.8 95 0.3 WSW 32 50 17 27 - - 1.4
02/09:00pm 2.1 -5.4 1.1 93 0.4 WSW 30 43 16 23 - - 0.6
02/08:53pm 2.4 -5.1 1.1 91 0.5 WSW 30 43 16 23 - - 0.4
02/08:36pm 3.0 -4.9 1.2 88 0.7 WSW 32 54 17 29 - - 0.2
02/08:30pm 3.1 -5.0 1.2 87 0.8 WSW 33 54 18 29 - - 0.2
02/08:28pm 3.2 -4.9 1.3 87 0.8 WSW 33 54 18 29 - - 0.2
02/08:00pm 3.2 -4.3 0.9 85 0.9 WSW 30 43 16 23 - - 0.2
02/07:30pm 3.0 -4.9 1.1 87 0.8 WSW 32 43 17 23 - - 0.2
02/07:00pm 3.0 -4.5 1.1 87 0.8 WSW 30 46 16 25 - - 0.2
02/06:48pm 3.0 -4.0 1.8 92 0.5 WSW 28 46 15 25 - - 0.2
02/06:30pm 2.5 -3.4 1.9 96 0.3 WSW 22 30 12 16 - - 0.2
02/06:07pm 2.3 -3.6 1.7 96 0.2 WSW 22 30 12 16 - - 0.2
02/06:00pm 2.4 -3.9 1.7 95 0.3 WSW 24 32 13 17 - - 0.2
02/05:57pm 2.4 -3.9 1.7 95 0.3 WSW 24 32 13 17 - - 0.2
02/05:48pm 2.5 -4.2 1.6 94 0.4 WSW 26 39 14 21 - - 0.2
02/05:30pm 2.7 -4.7 1.7 93 0.4 WSW 30 46 16 25 - - 0.2
02/05:14pm 3.1 -5.3 1.5 89 0.7 WSW 35 54 19 29 - - 0.2
02/05:09pm 3.6 -4.2 1.6 87 0.8 WSW 32 52 17 28 - - 0.2
02/05:00pm 3.7 -4.1 1.6 86 0.9 WSW 32 44 17 24 - - 0.2
02/04:30pm 3.9 -3.1 1.8 86 0.9 WSW 28 37 15 20 - - 0.2
02/04:08pm 4.1 -4.2 2.1 87 0.9 SW 35 54 19 29 - - 0.2
02/04:00pm 4.3 -3.6 2.5 88 0.8 WSW 33 48 18 26 - - 0.2
02/03:30pm 5.9 -0.6 2.4 78 1.5 WSW 26 41 14 22 - - 0.0
02/03:20pm 6.3 -0.8 1.6 72 2.0 WSW 28 48 15 26 - - 0.0
02/03:00pm 7.9 1.5 3.2 72 2.1 WSW 26 41 14 22 - - 0.0
02/02:30pm 7.7 0.0 2.2 68 2.4 WSW 32 50 17 27 - - 0.0
02/02:00pm 8.1 1.2 2.8 69 2.4 WSW 28 48 15 26 - - 0.0
02/01:44pm 6.4 -1.3 2.5 76 1.7 WSW 32 50 17 27 - - 0.0
02/01:30pm 6.7 -1.6 2.2 73 2.0 WSW 35 50 19 27 - - 0.0
02/01:18pm 7.8 0.7 1.6 65 2.7 W 28 46 15 25 - - 0.0
02/01:00pm 7.6 2.2 1.5 65 2.7 WSW 19 28 10 15 - - 0.0
02/12:30pm 7.6 1.2 1.2 64 2.8 WSW 24 33 13 18 - - 0.0
02/12:00pm 7.2 1.3 1.9 69 2.3 WSW 22 33 12 18 - - 0.0
02/11:30am 5.9 0.1 2.2 77 1.6 WSW 22 33 12 18 - - 0.0
02/11:00am 6.0 0.4 3.2 82 1.3 WSW 22 33 12 18 - - 0.0
02/10:30am 5.8 -1.0 3.3 84 1.1 WSW 28 41 15 22 - - 0.0
02/10:04am 5.7 -0.3 3.5 86 1.0 W 24 35 13 19 - - 0.0
02/10:00am 5.9 0.4 4.2 89 0.8 W 22 32 12 17 - - 0.0
02/09:30am 5.3 -0.1 4.4 94 0.4 WSW 22 32 12 17 - - 0.0
02/09:11am 4.9 -0.9 4.3 96 0.3 W 24 33 13 18 - - 0.0
02/09:04am 5.1 -0.3 4.7 97 0.2 W 22 30 12 16 - - 0.0
02/09:03am 5.1 -0.3 4.7 97 0.2 W 22 30 12 16 - - 0.0
02/09:00am 5.0 -0.4 4.6 97 0.2 W 22 30 12 16 - - 0.8
02/08:30am 4.9 0.4 4.3 96 0.3 WSW 17 26 9 14 - - 0.8
02/08:07am 5.6 0.8 4.6 93 0.5 W 19 24 10 13 - - 0.0
02/08:00am 5.7 0.9 4.5 92 0.6 W 19 28 10 15 - - 0.0
02/07:30am 5.9 1.7 3.9 87 0.9 W 15 20 8 11 - - 0.0
02/07:00am 5.9 0.9 3.4 84 1.1 W 19 28 10 15 - - 0.0
02/06:50am 6.0 0.8 3.3 83 1.2 W 20 30 11 16 - - 0.0
02/06:30am 6.1 -0.7 3.3 82 1.3 W 28 41 15 22 - - 0.0
02/06:00am 6.3 1.1 3.8 84 1.1 W 20 30 11 16 - - 0.0
02/05:58am 6.3 1.1 3.8 84 1.1 W 20 33 11 18 - - 0.0
02/05:38am 6.3 0.0 3.8 84 1.1 W 26 35 14 19 - - 0.0
02/05:30am 6.3 0.4 3.8 84 1.1 W 24 35 13 19 - - 0.0
02/05:26am 6.3 0.4 3.8 84 1.1 W 24 35 13 19 - - 0.0
02/05:00am 6.3 1.1 3.6 83 1.2 W 20 30 11 16 - - 0.0
02/04:30am 6.4 0.8 3.7 83 1.2 WSW 22 33 12 18 - - 0.0
02/04:00am 6.4 0.8 3.6 82 1.3 W 22 35 12 19 - - 0.0
02/03:30am 6.7 1.5 3.3 79 1.5 WSW 20 35 11 19 - - 0.0
02/03:00am 7.7 2.1 3.4 74 2.0 WSW 22 35 12 19 - - 0.0
02/02:30am 8.7 2.7 3.1 68 2.6 W 24 35 13 19 - - 0.0
02/02:00am 9.3 3.2 2.6 63 3.0 W 24 39 13 21 - - 0.0
02/01:30am 9.8 3.6 2.2 59 3.4 W 24 41 13 22 - - 0.0
02/01:00am 11.4 5.1 1.4 50 4.5 WNW 24 39 13 21 - - 0.0
02/12:30am 11.1 4.5 1.9 53 4.2 WNW 26 41 14 22 - - 0.0
02/12:00am 11.0 4.8 2.1 54 4.0 WNW 24 44 13 24 - - 0.0
 
Date/Time
EST
Tmp

°C
App
Tmp
°C
Dew
Point
°C
Rel
Hum
%
Delta-T

°C
Wind Press
QNH
hPa
Press
MSL
hPa
Rain
since
9 am
mm
Dir
 
Spd
km/h
Gust
km/h
Spd
kts
Gust
kts
01/11:30pm 10.7 4.9 2.3 56 3.8 WNW 22 37 12 20 - - 0.0
01/11:00pm 10.5 5.2 2.8 59 3.5 WNW 20 35 11 19 - - 0.0
01/10:30pm 10.1 5.0 2.9 61 3.3 W 19 33 10 18 - - 0.0
01/10:00pm 10.5 5.2 2.8 59 3.5 W 20 37 11 20 - - 0.0
01/09:30pm 10.4 5.7 3.2 61 3.3 W 17 28 9 15 - - 0.0
01/09:00pm 10.5 5.2 3.1 60 3.4 W 20 33 11 18 - - 0.0
01/08:30pm 10.7 5.1 3.3 60 3.4 WNW 22 37 12 20 - - 0.0
01/08:00pm 10.6 5.0 3.4 61 3.4 W 22 32 12 17 - - 0.0
01/07:30pm 10.5 4.5 3.1 60 3.4 W 24 39 13 21 - - 0.0
01/07:00pm 10.6 5.3 3.2 60 3.4 W 20 30 11 16 - - 0.0
01/06:30pm 10.6 5.5 3.2 60 3.4 W 19 35 10 19 - - 0.0
01/06:00pm 10.9 5.9 3.7 61 3.4 W 19 30 10 16 - - 0.0
01/05:30pm 11.5 7.0 4.0 60 3.6 W 17 32 9 17 - - 0.0
01/05:00pm 12.2 8.1 4.2 58 3.8 W 15 24 8 13 - - 0.0
01/04:30pm 13.4 9.0 4.6 55 4.3 W 17 24 9 13 - - 0.0
01/04:00pm 12.9 8.0 4.3 56 4.2 W 19 28 10 15 - - 0.0
01/03:30pm 12.9 7.9 3.6 53 4.4 W 19 24 10 13 - - 0.0
01/03:00pm 13.7 8.5 3.8 51 4.8 W 20 33 11 18 - - 0.0
01/02:30pm 14.3 8.7 3.2 47 5.3 W 22 41 12 22 - - 0.0
01/02:00pm 14.5 8.5 3.6 48 5.3 WSW 24 35 13 19 - - 0.0
01/01:30pm 14.7 9.5 3.8 48 5.3 WSW 20 33 11 18 - - 0.0
01/01:00pm 14.1 7.7 3.3 48 5.2 WSW 26 41 14 22 - - 0.0
01/12:45pm 13.9 7.2 3.4 49 5.0 W 28 46 15 25 - - 0.0
01/12:30pm 13.1 6.2 2.6 49 4.9 W 28 43 15 23 - - 0.0
01/12:00pm 12.8 6.7 2.9 51 4.7 W 24 39 13 21 - - 0.0
01/11:30am 13.1 7.1 3.5 52 4.6 WSW 24 37 13 20 - - 0.0
01/11:00am 11.3 5.6 3.1 57 3.8 W 22 32 12 17 - - 0.0
01/10:30am 11.9 6.3 3.4 56 4.0 W 22 35 12 19 - - 0.0
01/10:00am 10.7 4.4 3.5 61 3.4 W 26 37 14 20 - - 0.0
01/09:30am 10.0 3.8 4.2 67 2.7 W 26 35 14 19 - - 0.0
01/09:00am 9.1 4.2 4.1 71 2.3 WSW 19 28 10 15 - - 0.0
01/08:30am 8.3 3.1 3.6 72 2.2 W 20 30 11 16 - - 0.0
01/08:00am 7.9 2.7 3.4 73 2.1 W 20 32 11 17 - - 0.0
01/07:30am 7.0 1.7 3.1 76 1.8 W 20 28 11 15 - - 0.0
01/07:00am 6.7 1.6 3.0 77 1.7 W 19 26 10 14 - - 0.0
01/06:30am 6.8 1.7 3.2 78 1.6 W 19 24 10 13 - - 0.0
01/06:00am 6.9 2.6 3.2 77 1.7 W 15 20 8 11 - - 0.0
01/05:30am 6.8 1.1 3.1 77 1.7 W 22 28 12 15 - - 0.0
01/05:00am 6.4 1.0 2.7 77 1.6 W 20 28 11 15 - - 0.0
01/04:30am 6.4 1.2 2.7 77 1.6 W 19 26 10 14 - - 0.0
01/04:00am 6.4 1.5 2.3 75 1.8 W 17 20 9 11 - - 0.0
01/03:30am 6.3 1.8 2.2 75 1.8 W 15 20 8 11 - - 0.0
01/03:00am 6.2 2.0 1.9 74 1.9 W 13 17 7 9 - - 0.0
01/02:30am 6.5 2.7 2.0 73 2.0 WNW 11 15 6 8 - - 0.0
01/02:00am 6.4 2.6 1.9 73 2.0 WNW 11 13 6 7 - - 0.0
01/01:30am 5.7 2.3 1.6 75 1.8 W 9 11 5 6 - - 0.0
01/01:00am 5.8 2.7 1.3 73 1.9 WNW 7 9 4 5 - - 0.0
01/12:30am 6.3 3.2 1.6 72 2.0 WNW 7 9 4 5 - - 0.0
01/12:00am 6.8 3.8 1.7 70 2.2 WNW 7 11 4 6 - - 0.0
 
Date/Time
EST
Tmp

°C
App
Tmp
°C
Dew
Point
°C
Rel
Hum
%
Delta-T

°C
Wind Press
QNH
hPa
Press
MSL
hPa
Rain
since
9 am
mm
Dir
 
Spd
km/h
Gust
km/h
Spd
kts
Gust
kts
31/11:30pm 7.4 4.0 2.1 69 2.3 W 9 11 5 6 - - 0.0
31/11:00pm 8.7 6.4 2.5 65 2.8 NNW 4 9 2 5 - - 0.0
31/10:30pm 7.9 6.3 2.2 67 2.5 CALM 0 2 0 1 - - 0.0
31/10:00pm 8.3 5.9 2.3 66 2.7 WNW 4 7 2 4 - - 0.0
31/09:30pm 8.5 5.7 2.3 65 2.8 NW 6 7 3 4 - - 0.0
31/09:00pm 9.0 7.5 2.8 65 2.8 CALM 0 6 0 3 - - 0.0
31/08:30pm 9.0 7.1 2.8 65 2.8 NNW 2 7 1 4 - - 0.0
31/08:00pm 9.1 6.4 2.9 65 2.8 NW 6 7 3 4 - - 0.0
31/07:30pm 9.3 6.7 4.1 70 2.4 NW 7 13 4 7 - - 0.0
31/07:00pm 9.3 7.4 6.7 84 1.3 ENE 6 7 3 4 - - 0.0
31/06:30pm 9.4 7.2 6.1 80 1.6 ENE 7 11 4 6 - - 0.0
31/06:00pm 10.0 7.3 5.6 74 2.1 E 9 13 5 7 - - 0.0
31/05:30pm 12.6 10.0 3.3 53 4.4 W 6 9 3 5 - - 0.0
31/05:00pm 13.6 10.0 3.1 49 5.0 W 11 17 6 9 - - 0.0
31/04:30pm 14.4 11.3 3.5 48 5.3 WNW 9 15 5 8 - - 0.0
31/04:00pm 14.2 10.5 2.5 45 5.5 W 11 20 6 11 - - 0.0
31/03:30pm 15.1 11.4 4.2 48 5.4 W 13 20 7 11 - - 0.0

Latest Capital City Observations: Canberra | Sydney | Melbourne | Brisbane | Adelaide | Perth | Hobart | Darwin

Other Formats:

Comma delimited format used in spreadsheet applications
http://www.bom.gov.au/fwo/IDN60901/IDN60901.94743.axf

JavaScript Object Notation format (JSON) in row-major order
http://www.bom.gov.au/fwo/IDN60901/IDN60901.94743.json